Detall de PIREP

Printer-friendly versionPDF version

[2017/04/22 08:06:00]
Flight IATA:CT3307
Pilot Number:012
Company ICAO:CAT
Aircraft Type:B763/F
PAX:217
Departing Airport: HECA
Destination Airport: LEZG
Alternate Airport:LEBL
Online: VATSIM
Route:CVO A1 METRU UM872 PLH UM729 BADOG UN45 NIMAN UQ789 ORTAP ENEPA PAL RONAB QUENN/N0458F380 GOKMI SUPUX/N0458F370 UZ924 ODAKA/N0456F380 UM739 BALEN/N0457F370 UM601 BCN UN725 LOBAR
Flight Level:F360
No Slew and time accel
No pause
Crash detect
Detect pilot in Cockpit between each 30 and 45 minutes
08:06 Zero fuel Weight: 287224 Lbs, Fuel Weight: 63073 Lbs
08:06 VATSIM:HECA 220730Z 03010KT CAVOK 29/09 Q1009 NOSIG
08:06 VATSIM:LEZG 220730Z 07003KT 030V110 CAVOK 11/03 Q1026
08:07 Parking Brakes off
08:11 Take-off
08:11 Take off Weight: 348751 Lbs
08:11 Wind: 026º @ 007 Knots Heading: 048º
08:11 POS N30º 07´ 55´´ E031º 23´ 48´´
08:12 Flaps:2 at 182 Knots
08:12 Gear Up: 184 Knots
08:12 Flaps:1 at 198 Knots
08:12 Flaps:0 at 214 Knots
08:27 Wind:237º@042 Knots Heading: 283º Ground Speed: 453 Knots Altitude 30295 ft
08:30 TOC
08:30 Fuel Weight: 53961 Lb
08:42 Wind:243º@049 Knots Heading: 301º Ground Speed: 444 Knots Altitude 35967 ft
08:57 Wind:246º@068 Knots Heading: 297º Ground Speed: 424 Knots Altitude 36033 ft
09:12 Wind:245º@070 Knots Heading: 307º Ground Speed: 431 Knots Altitude 36108 ft
09:27 Wind:243º@068 Knots Heading: 293º Ground Speed: 418 Knots Altitude 36112 ft
09:42 Wind:250º@048 Knots Heading: 264º Ground Speed: 410 Knots Altitude 36151 ft
09:57 Wind:270º@027 Knots Heading: 291º Ground Speed: 434 Knots Altitude 36187 ft
10:12 Wind:304º@038 Knots Heading: 291º Ground Speed: 424 Knots Altitude 36289 ft
10:27 Wind:315º@048 Knots Heading: 291º Ground Speed: 419 Knots Altitude 36295 ft
10:42 Wind:322º@048 Knots Heading: 330º Ground Speed: 414 Knots Altitude 36338 ft
10:57 Wind:334º@039 Knots Heading: 330º Ground Speed: 425 Knots Altitude 38300 ft
11:12 Wind:330º@041 Knots Heading: 282º Ground Speed: 439 Knots Altitude 38375 ft
11:27 Wind:324º@030 Knots Heading: 262º Ground Speed: 447 Knots Altitude 39373 ft
11:42 Wind:267º@008 Knots Heading: 278º Ground Speed: 453 Knots Altitude 39333 ft
11:57 Wind:233º@007 Knots Heading: 276º Ground Speed: 457 Knots Altitude 39327 ft
12:05 TOD
12:05 Fuel Weight: 16819 Lb
12:12 Wind:203º@003 Knots Heading: 287º Ground Speed: 393 Knots Altitude 17257 ft
12:23 Flaps:1 at 209 Knots
12:24 Flaps:2 at 196 Knots
12:25 Flaps:3 at 189 Knots
12:27 Wind:067º@003 Knots Heading: 283º Ground Speed: 205 Knots Altitude 4009 ft
12:27 Flaps:4 at 179 Knots
12:27 Gear Down: 168 Knots
12:27 Flaps:5 at 155 Knots
12:28 Flaps:6 at 144 Knots
12:32 TouchDown:Rate -160 ft/minSpeed: 139 Knots
12:32 VATSIM:LEZG 221200Z 05004KT 360V120 CAVOK 20/01 Q1023
12:32 Land
12:32 Wind:054º@004 Knots
12:32 Heading: 299º
12:32 Flight Duration: 04:20
12:32 Landing Weight: 300307 Lbs
12:32 POS N41º 39´ 41´´ W001º 01´ 18´´
12:36 Parking brakes on
12:36 Block to Block Duration: 04:29
12:36 Final Fuel: 12579 Lbls
12:36 Spent Fuel: 50493 Lbls
12:36 Flight Length: 1803 NM
12:36 TOD Land Length: 132 NM

Exportar CSV

Powered by Drupal - Modified by Danger4k